Time;durP1;ratioP1;P1;durP2;ratioP2;P2;SDS_P1;SDS_P2;PMS_P1;PMS_P2;Temp;Humidity;BMP_temperature;BMP_pressure;BME280_temperature;BME280_humidity;BME280_pressure;Samples;Min_cycle;Max_cycle;Signal;HPM_P1;HPM_P2
2021/09/12 00:01:15;;;;;;;25.77;20.08;;;;;;;;;;2081662;28;20026;-83
2021/09/12 00:02:34;;;;;;;23.15;20.58;;;;;;;;;;2079054;28;20033;-83
2021/09/12 00:03:52;;;;;;;22.65;20.00;;;;;;;;;;2078411;28;20501;-83
2021/09/12 00:05:11;;;;;;;23.17;20.55;;;;;;;;;;2077017;28;20037;-83
2021/09/12 00:06:30;;;;;;;22.75;20.30;;;;;;;;;;2079894;28;20331;-82
2021/09/12 00:07:49;;;;;;;22.35;20.05;;;;;;;;;;2077751;28;20034;-83
2021/09/12 00:09:08;;;;;;;21.33;19.00;;;;;;;;;;2081855;28;20483;-83
2021/09/12 00:10:27;;;;;;;22.23;19.80;;;;;;;;;;2081364;28;20037;-83
2021/09/12 00:11:45;;;;;;;23.52;19.90;;;;;;;;;;2078979;28;20060;-83
2021/09/12 00:13:04;;;;;;;22.08;19.60;;;;;;;;;;2080951;28;20079;-82
2021/09/12 00:14:26;;;;;;;25.10;20.60;;;;;;;;;;2088112;28;20025;-83
2021/09/12 00:15:45;;;;;;;24.20;20.58;;;;;;;;;;2089617;28;20477;-83
2021/09/12 00:17:04;;;;;;;25.42;22.05;;;;;;;;;;2082470;28;20024;-84
2021/09/12 00:18:22;;;;;;;29.65;22.52;;;;;;;;;;2081479;28;20057;-83
2021/09/12 00:19:41;;;;;;;26.35;21.63;;;;;;;;;;2081621;28;20033;-84
2021/09/12 00:21:00;;;;;;;25.05;21.45;;;;;;;;;;2075176;28;20033;-83
2021/09/12 00:22:19;;;;;;;24.55;21.13;;;;;;;;;;2079443;28;20086;-83
2021/09/12 00:23:38;;;;;;;25.05;21.20;;;;;;;;;;2081424;28;20013;-83
2021/09/12 00:25:04;;;;;;;25.17;20.27;;;;;;;;;;2078158;28;20030;-81
2021/09/12 00:26:23;;;;;;;26.13;21.52;;;;;;;;;;2079705;28;20045;-84
2021/09/12 00:27:42;;;;;;;32.45;24.83;;;;;;;;;;2080755;28;20061;-82
2021/09/12 00:29:04;;;;;;;32.45;23.67;;;;;;;;;;2080789;28;20021;-82
2021/09/12 00:30:23;;;;;;;29.65;23.05;;;;;;;;;;2077449;28;20030;-82
2021/09/12 00:31:42;;;;;;;28.38;22.95;;;;;;;;;;2084443;28;20037;-80
2021/09/12 00:33:03;;;;;;;30.42;23.80;;;;;;;;;;2082805;28;20033;-84
2021/09/12 00:34:22;;;;;;;24.85;20.23;;;;;;;;;;2083529;28;20029;-82
2021/09/12 00:35:41;;;;;;;32.03;22.42;;;;;;;;;;2080878;28;20029;-81
2021/09/12 00:36:59;;;;;;;32.05;23.50;;;;;;;;;;2078463;28;20022;-82
2021/09/12 00:38:18;;;;;;;31.25;23.33;;;;;;;;;;2076234;28;20029;-83
2021/09/12 00:39:37;;;;;;;30.30;22.63;;;;;;;;;;2082278;28;20108;-82
2021/09/12 00:40:57;;;;;;;24.13;21.40;;;;;;;;;;2083175;28;20025;-83
2021/09/12 00:42:16;;;;;;;26.73;21.48;;;;;;;;;;2081268;28;20100;-83
2021/09/12 00:43:35;;;;;;;30.15;23.08;;;;;;;;;;2076843;28;20030;-83
2021/09/12 00:44:54;;;;;;;30.45;22.60;;;;;;;;;;2076661;28;20026;-83
2021/09/12 00:46:13;;;;;;;24.80;21.75;;;;;;;;;;2078554;28;20109;-82
2021/09/12 00:47:32;;;;;;;36.20;22.58;;;;;;;;;;2081064;28;20489;-82
2021/09/12 00:48:51;;;;;;;25.42;21.42;;;;;;;;;;2082040;28;20036;-83
2021/09/12 00:50:10;;;;;;;26.60;23.20;;;;;;;;;;2081135;28;20482;-83
2021/09/12 00:51:29;;;;;;;32.20;24.67;;;;;;;;;;2087844;28;20387;-82
2021/09/12 00:52:49;;;;;;;28.85;22.25;;;;;;;;;;2083962;28;20033;-84
2021/09/12 00:54:09;;;;;;;29.58;23.10;;;;;;;;;;2076283;28;20034;-84
2021/09/12 00:55:29;;;;;;;29.15;22.13;;;;;;;;;;2084313;28;20018;-83
2021/09/12 00:56:48;;;;;;;27.48;22.10;;;;;;;;;;2078716;28;20025;-83
2021/09/12 00:58:08;;;;;;;26.73;21.40;;;;;;;;;;2079876;28;20018;-83
2021/09/12 00:59:27;;;;;;;22.67;20.27;;;;;;;;;;2083042;28;20424;-83
2021/09/12 01:00:46;;;;;;;26.52;21.20;;;;;;;;;;2081573;28;20026;-83
2021/09/12 01:02:06;;;;;;;27.48;20.15;;;;;;;;;;2090523;28;20030;-84
2021/09/12 01:03:24;;;;;;;25.42;19.63;;;;;;;;;;2085371;28;20444;-83
2021/09/12 01:04:43;;;;;;;26.70;21.52;;;;;;;;;;2076516;28;20029;-84
2021/09/12 01:06:02;;;;;;;25.05;19.88;;;;;;;;;;2078653;28;20030;-83
2021/09/12 01:07:21;;;;;;;25.83;21.85;;;;;;;;;;2079576;28;20041;-84
2021/09/12 01:08:40;;;;;;;29.65;21.98;;;;;;;;;;2078645;28;20025;-83
2021/09/12 01:09:59;;;;;;;27.13;21.42;;;;;;;;;;2079267;28;20037;-83
2021/09/12 01:11:17;;;;;;;28.67;22.58;;;;;;;;;;2082971;28;20030;-84
2021/09/12 01:12:37;;;;;;;32.65;20.98;;;;;;;;;;2089073;28;20064;-84
2021/09/12 01:13:56;;;;;;;23.67;18.38;;;;;;;;;;2081163;28;20498;-83
2021/09/12 01:15:14;;;;;;;29.38;22.30;;;;;;;;;;2079232;28;20037;-80
2021/09/12 01:16:34;;;;;;;32.13;22.83;;;;;;;;;;2078731;28;20030;-83
2021/09/12 01:17:53;;;;;;;31.55;22.60;;;;;;;;;;2077653;28;20026;-83
2021/09/12 01:19:12;;;;;;;32.25;22.80;;;;;;;;;;2090303;28;20033;-84
2021/09/12 01:20:30;;;;;;;30.25;22.02;;;;;;;;;;2079615;28;20026;-83
2021/09/12 01:21:54;;;;;;;30.50;22.33;;;;;;;;;;2088247;28;20025;-82
2021/09/12 01:23:13;;;;;;;28.15;19.90;;;;;;;;;;2084094;28;20026;-82
2021/09/12 01:24:33;;;;;;;29.08;20.25;;;;;;;;;;2075820;28;20029;-83
2021/09/12 01:25:55;;;;;;;28.83;21.38;;;;;;;;;;2083525;28;20053;-83
2021/09/12 01:27:14;;;;;;;30.05;21.27;;;;;;;;;;2085176;28;20109;-83
2021/09/12 01:28:33;;;;;;;27.98;21.48;;;;;;;;;;2082204;28;20034;-81
2021/09/12 01:29:52;;;;;;;32.83;20.05;;;;;;;;;;2079710;28;20030;-83
2021/09/12 01:31:38;;;;;;;31.98;20.80;;;;;;;;;;2079456;28;20497;-82
2021/09/12 01:32:57;;;;;;;31.25;20.90;;;;;;;;;;2080648;28;20021;-83
2021/09/12 01:34:15;;;;;;;30.48;21.35;;;;;;;;;;2079542;28;20029;-83
2021/09/12 01:35:34;;;;;;;30.92;20.67;;;;;;;;;;2081745;28;20025;-81
2021/09/12 01:36:53;;;;;;;29.30;20.08;;;;;;;;;;2078732;28;20021;-83
2021/09/12 01:38:11;;;;;;;31.50;21.40;;;;;;;;;;2082638;28;20025;-83
2021/09/12 01:39:30;;;;;;;32.28;21.25;;;;;;;;;;2080272;28;20073;-81
2021/09/12 01:40:49;;;;;;;31.52;21.38;;;;;;;;;;2082435;28;20029;-84
2021/09/12 01:42:08;;;;;;;35.13;21.15;;;;;;;;;;2079845;28;20018;-83
2021/09/12 01:43:27;;;;;;;29.80;20.25;;;;;;;;;;2081906;28;20378;-83
2021/09/12 01:44:46;;;;;;;31.35;21.20;;;;;;;;;;2090971;28;20059;-83
2021/09/12 01:46:05;;;;;;;34.30;22.13;;;;;;;;;;2082857;28;20029;-82
2021/09/12 01:47:24;;;;;;;32.50;21.58;;;;;;;;;;2080331;28;20107;-82
2021/09/12 01:48:43;;;;;;;27.58;20.58;;;;;;;;;;2081580;28;20029;-83
2021/09/12 01:50:02;;;;;;;31.88;20.33;;;;;;;;;;2078606;28;20033;-82
2021/09/12 01:51:22;;;;;;;32.00;22.00;;;;;;;;;;2081131;28;20029;-83
2021/09/12 01:52:41;;;;;;;30.42;21.58;;;;;;;;;;2080688;28;20021;-82
2021/09/12 01:53:59;;;;;;;28.67;19.83;;;;;;;;;;2076442;28;20112;-83
2021/09/12 01:55:19;;;;;;;29.15;20.90;;;;;;;;;;2081227;28;20037;-82
2021/09/12 01:56:38;;;;;;;27.45;20.08;;;;;;;;;;2080600;28;20022;-83
2021/09/12 01:57:57;;;;;;;31.85;23.20;;;;;;;;;;2078780;28;20453;-83
2021/09/12 01:59:16;;;;;;;28.58;22.55;;;;;;;;;;2079907;28;20018;-83
2021/09/12 02:00:34;;;;;;;29.55;22.58;;;;;;;;;;2087975;28;20026;-82
2021/09/12 02:01:53;;;;;;;37.00;25.40;;;;;;;;;;2081953;28;20017;-83
2021/09/12 02:03:11;;;;;;;32.72;23.75;;;;;;;;;;2082737;28;20033;-83
2021/09/12 02:04:30;;;;;;;33.90;22.88;;;;;;;;;;2079073;28;20037;-83
2021/09/12 02:05:50;;;;;;;33.97;23.63;;;;;;;;;;2087701;28;20033;-84
2021/09/12 02:07:09;;;;;;;29.98;22.00;;;;;;;;;;2083529;28;20026;-83
2021/09/12 02:08:28;;;;;;;34.15;23.67;;;;;;;;;;2082803;28;20037;-83
2021/09/12 02:09:47;;;;;;;35.33;25.40;;;;;;;;;;2077871;28;20025;-83
2021/09/12 02:11:05;;;;;;;33.00;24.00;;;;;;;;;;2076702;28;20486;-82
2021/09/12 02:12:24;;;;;;;35.03;24.92;;;;;;;;;;2076329;28;20034;-84
2021/09/12 02:13:43;;;;;;;37.83;25.75;;;;;;;;;;2081291;28;20033;-83
2021/09/12 02:15:02;;;;;;;34.22;25.13;;;;;;;;;;2090336;28;20436;-82
2021/09/12 02:16:22;;;;;;;37.40;24.90;;;;;;;;;;2081919;28;20082;-84
2021/09/12 02:17:40;;;;;;;34.85;24.33;;;;;;;;;;2079319;28;20879;-84
2021/09/12 02:18:59;;;;;;;32.15;24.65;;;;;;;;;;2082684;28;20026;-83
2021/09/12 02:20:18;;;;;;;34.75;25.98;;;;;;;;;;2084250;28;20018;-83
2021/09/12 02:21:37;;;;;;;37.58;25.88;;;;;;;;;;2079980;28;20097;-83
2021/09/12 02:22:56;;;;;;;36.40;25.88;;;;;;;;;;2081808;28;20026;-83
2021/09/12 02:24:15;;;;;;;37.08;26.05;;;;;;;;;;2079088;28;20025;-83
2021/09/12 02:25:34;;;;;;;38.83;26.27;;;;;;;;;;2084355;28;20056;-83
2021/09/12 02:26:53;;;;;;;40.55;27.52;;;;;;;;;;2078290;28;20045;-83
2021/09/12 02:28:12;;;;;;;40.42;28.08;;;;;;;;;;2087508;28;20021;-82
2021/09/12 02:29:31;;;;;;;40.83;27.05;;;;;;;;;;2080404;28;20108;-82
2021/09/12 02:30:49;;;;;;;43.95;27.63;;;;;;;;;;2084495;28;20130;-83
2021/09/12 02:32:08;;;;;;;44.55;27.95;;;;;;;;;;2076424;28;20501;-83
2021/09/12 02:33:27;;;;;;;53.30;29.63;;;;;;;;;;2077280;28;20482;-84
2021/09/12 02:34:45;;;;;;;46.47;27.77;;;;;;;;;;2081343;28;20093;-83
2021/09/12 02:36:04;;;;;;;47.30;28.88;;;;;;;;;;2077858;28;20025;-82
2021/09/12 02:37:23;;;;;;;46.40;29.23;;;;;;;;;;2084129;28;20025;-82
2021/09/12 02:38:42;;;;;;;52.60;29.13;;;;;;;;;;2080061;28;20045;-82
2021/09/12 02:40:00;;;;;;;50.33;28.80;;;;;;;;;;2079043;28;20025;-83
2021/09/12 02:41:20;;;;;;;56.95;29.95;;;;;;;;;;2078917;28;20030;-80
2021/09/12 02:42:38;;;;;;;55.95;30.52;;;;;;;;;;2074621;28;20026;-82
2021/09/12 02:43:57;;;;;;;57.35;30.27;;;;;;;;;;2078353;28;20029;-83
2021/09/12 02:45:16;;;;;;;56.83;30.48;;;;;;;;;;2077488;28;20472;-81
2021/09/12 02:46:35;;;;;;;45.00;28.67;;;;;;;;;;2082075;28;20025;-82
2021/09/12 02:47:54;;;;;;;53.88;29.23;;;;;;;;;;2078544;28;20242;-80
2021/09/12 02:49:12;;;;;;;46.67;26.90;;;;;;;;;;2079509;28;20029;-82
2021/09/12 02:50:31;;;;;;;54.85;29.38;;;;;;;;;;2080401;28;20026;-81
2021/09/12 02:51:50;;;;;;;61.17;31.23;;;;;;;;;;2087436;28;20444;-81
2021/09/12 02:53:09;;;;;;;46.15;27.63;;;;;;;;;;2076539;28;20045;-82
2021/09/12 02:54:27;;;;;;;49.55;28.15;;;;;;;;;;2076891;28;20104;-81
2021/09/12 02:55:46;;;;;;;47.70;27.85;;;;;;;;;;2078686;28;20025;-82
2021/09/12 02:57:05;;;;;;;55.75;28.25;;;;;;;;;;2078566;28;20034;-82
2021/09/12 02:58:24;;;;;;;46.67;27.00;;;;;;;;;;2078407;28;20029;-82
2021/09/12 02:59:43;;;;;;;54.38;30.02;;;;;;;;;;2078387;28;20778;-83
2021/09/12 03:01:02;;;;;;;55.42;28.60;;;;;;;;;;2084743;28;20025;-81
2021/09/12 03:02:21;;;;;;;57.05;29.90;;;;;;;;;;2085844;28;20410;-82
2021/09/12 03:03:40;;;;;;;52.58;28.52;;;;;;;;;;2081630;28;20029;-82
2021/09/12 03:04:58;;;;;;;53.70;29.17;;;;;;;;;;2079673;28;20033;-82
2021/09/12 03:06:17;;;;;;;57.22;28.83;;;;;;;;;;2078261;28;20038;-82
2021/09/12 03:07:36;;;;;;;60.10;29.00;;;;;;;;;;2083690;28;20389;-83
2021/09/12 03:08:55;;;;;;;55.60;28.83;;;;;;;;;;2075083;28;20116;-82
2021/09/12 03:10:13;;;;;;;50.50;27.58;;;;;;;;;;2082362;28;20068;-83
2021/09/12 03:11:32;;;;;;;61.03;29.67;;;;;;;;;;2078293;28;20037;-82
2021/09/12 03:12:51;;;;;;;44.67;27.15;;;;;;;;;;2078233;28;20025;-83
2021/09/12 03:14:12;;;;;;;52.30;29.30;;;;;;;;;;2076670;28;20025;-83
2021/09/12 03:15:30;;;;;;;52.00;28.58;;;;;;;;;;2077497;28;20018;-82
2021/09/12 03:16:49;;;;;;;48.35;27.02;;;;;;;;;;2084744;28;20025;-83
2021/09/12 03:18:08;;;;;;;54.50;27.85;;;;;;;;;;2085146;28;20390;-83
2021/09/12 03:19:27;;;;;;;47.55;27.95;;;;;;;;;;2079867;28;20123;-83
2021/09/12 03:20:46;;;;;;;51.08;28.58;;;;;;;;;;2080250;28;20030;-82
2021/09/12 03:22:05;;;;;;;45.97;27.73;;;;;;;;;;2078323;28;20477;-83
2021/09/12 03:23:23;;;;;;;50.83;28.25;;;;;;;;;;2078414;28;20501;-82
2021/09/12 03:24:42;;;;;;;46.05;27.00;;;;;;;;;;2078142;28;20801;-83
2021/09/12 03:26:01;;;;;;;47.63;27.70;;;;;;;;;;2077013;28;20132;-82
2021/09/12 03:27:19;;;;;;;38.58;25.42;;;;;;;;;;2082924;28;20042;-82
2021/09/12 03:28:38;;;;;;;39.08;25.17;;;;;;;;;;2080906;28;20049;-82
2021/09/12 03:29:57;;;;;;;45.90;26.48;;;;;;;;;;2087427;28;20029;-82
2021/09/12 03:31:16;;;;;;;36.60;24.65;;;;;;;;;;2078264;28;20501;-82
2021/09/12 03:32:34;;;;;;;42.25;23.45;;;;;;;;;;2082103;28;20493;-82
2021/09/12 03:33:53;;;;;;;39.55;24.63;;;;;;;;;;2081912;28;20485;-84
2021/09/12 03:35:12;;;;;;;40.47;24.40;;;;;;;;;;2077564;28;20033;-82
2021/09/12 03:36:31;;;;;;;37.60;23.60;;;;;;;;;;2079071;28;20021;-82
2021/09/12 03:37:50;;;;;;;36.10;22.65;;;;;;;;;;2076874;28;20513;-83
2021/09/12 03:39:08;;;;;;;31.83;22.40;;;;;;;;;;2078121;28;20025;-83
2021/09/12 03:40:27;;;;;;;31.25;22.63;;;;;;;;;;2078242;28;20026;-82
2021/09/12 03:41:46;;;;;;;31.30;22.30;;;;;;;;;;2085423;28;20021;-83
2021/09/12 03:43:05;;;;;;;35.05;22.70;;;;;;;;;;2084903;28;20025;-83
2021/09/12 03:44:24;;;;;;;31.05;21.45;;;;;;;;;;2082095;28;20110;-82
2021/09/12 03:45:43;;;;;;;31.92;21.75;;;;;;;;;;2082119;28;20029;-83
2021/09/12 03:47:02;;;;;;;31.35;21.48;;;;;;;;;;2079748;28;20021;-81
2021/09/12 03:48:22;;;;;;;30.08;20.70;;;;;;;;;;2066853;28;20030;-82
2021/09/12 03:49:41;;;;;;;23.50;17.55;;;;;;;;;;2080880;28;20017;-83
2021/09/12 03:50:59;;;;;;;28.25;18.67;;;;;;;;;;2081581;28;20026;-82
2021/09/12 03:52:19;;;;;;;28.80;18.95;;;;;;;;;;2083865;28;20029;-82
2021/09/12 03:53:38;;;;;;;23.85;17.90;;;;;;;;;;2081632;28;20033;-82
2021/09/12 03:54:57;;;;;;;25.38;18.85;;;;;;;;;;2075840;28;20017;-82
2021/09/12 03:56:15;;;;;;;25.35;18.60;;;;;;;;;;2079999;28;20030;-81
2021/09/12 03:57:35;;;;;;;26.17;17.92;;;;;;;;;;2084201;28;20041;-83
2021/09/12 03:58:54;;;;;;;22.13;17.85;;;;;;;;;;2082022;28;20500;-81
2021/09/12 04:00:13;;;;;;;20.75;17.40;;;;;;;;;;2082233;28;20462;-83
2021/09/12 04:01:32;;;;;;;25.60;19.65;;;;;;;;;;2080515;28;20029;-83
2021/09/12 04:02:51;;;;;;;24.02;18.40;;;;;;;;;;2082439;28;20026;-83
2021/09/12 04:04:09;;;;;;;23.30;18.25;;;;;;;;;;2077685;28;20026;-82
2021/09/12 04:05:28;;;;;;;21.80;17.27;;;;;;;;;;2078312;28;20405;-81
2021/09/12 04:06:47;;;;;;;19.92;16.17;;;;;;;;;;2077935;28;20026;-81
2021/09/12 04:08:05;;;;;;;23.15;17.08;;;;;;;;;;2078559;28;20057;-82
2021/09/12 04:09:24;;;;;;;19.85;16.73;;;;;;;;;;2083112;28;20494;-81
2021/09/12 04:10:43;;;;;;;19.63;16.23;;;;;;;;;;2077041;28;20030;-82
2021/09/12 04:12:02;;;;;;;18.58;16.58;;;;;;;;;;2079326;28;20017;-83
2021/09/12 04:13:21;;;;;;;21.48;16.23;;;;;;;;;;2080759;28;20017;-82
2021/09/12 04:14:39;;;;;;;17.17;15.43;;;;;;;;;;2080662;28;20029;-83
2021/09/12 04:15:58;;;;;;;23.20;17.63;;;;;;;;;;2077147;28;20030;-82
2021/09/12 04:17:17;;;;;;;21.77;15.88;;;;;;;;;;2078881;28;20037;-82
2021/09/12 04:18:36;;;;;;;19.33;15.82;;;;;;;;;;2082267;28;20488;-81
2021/09/12 04:19:55;;;;;;;18.45;14.95;;;;;;;;;;2077646;28;20045;-82
2021/09/12 04:21:14;;;;;;;19.25;16.40;;;;;;;;;;2078747;28;20033;-82
2021/09/12 04:22:33;;;;;;;16.85;15.07;;;;;;;;;;2081192;28;20021;-82
2021/09/12 04:23:52;;;;;;;18.67;15.02;;;;;;;;;;2080407;28;20025;-82
2021/09/12 04:25:11;;;;;;;16.45;14.68;;;;;;;;;;2078819;28;20029;-82
2021/09/12 04:26:30;;;;;;;18.67;14.75;;;;;;;;;;2078408;28;20038;-82
2021/09/12 04:27:49;;;;;;;15.07;13.05;;;;;;;;;;2083409;28;20025;-82
2021/09/12 04:29:10;;;;;;;15.85;14.10;;;;;;;;;;2082911;28;20029;-82
2021/09/12 04:30:29;;;;;;;15.77;14.18;;;;;;;;;;2083263;28;20034;-82
2021/09/12 04:31:48;;;;;;;14.60;13.23;;;;;;;;;;2089294;28;20033;-81
2021/09/12 04:33:07;;;;;;;16.33;13.48;;;;;;;;;;2082212;28;20060;-81
2021/09/12 04:34:26;;;;;;;19.50;14.55;;;;;;;;;;2078107;28;20033;-82
2021/09/12 04:35:45;;;;;;;14.63;13.15;;;;;;;;;;2079239;28;20029;-82
2021/09/12 04:37:04;;;;;;;15.50;12.82;;;;;;;;;;2082092;28;20061;-82
2021/09/12 04:38:23;;;;;;;15.95;13.77;;;;;;;;;;2085549;28;20030;-82
2021/09/12 04:39:42;;;;;;;16.30;14.07;;;;;;;;;;2079319;28;20037;-81
2021/09/12 04:41:01;;;;;;;14.75;13.25;;;;;;;;;;2079711;28;20382;-81
2021/09/12 04:42:20;;;;;;;14.80;12.85;;;;;;;;;;2080770;28;20021;-81
2021/09/12 04:43:39;;;;;;;14.57;13.07;;;;;;;;;;2078617;28;20022;-83
2021/09/12 04:44:57;;;;;;;14.38;13.02;;;;;;;;;;2079397;28;20033;-83
2021/09/12 04:46:16;;;;;;;14.02;12.02;;;;;;;;;;2077066;28;20397;-82
2021/09/12 04:47:35;;;;;;;12.40;11.30;;;;;;;;;;2078673;28;20096;-82
2021/09/12 04:48:54;;;;;;;13.70;12.40;;;;;;;;;;2083274;28;20019;-82
2021/09/12 04:50:13;;;;;;;13.95;12.40;;;;;;;;;;2083157;28;20033;-82
2021/09/12 04:51:32;;;;;;;10.93;9.82;;;;;;;;;;2081730;28;20490;-82
2021/09/12 04:52:50;;;;;;;11.32;10.23;;;;;;;;;;2076700;28;20025;-82
2021/09/12 04:54:09;;;;;;;11.32;10.15;;;;;;;;;;2079318;28;20037;-82
2021/09/12 04:55:28;;;;;;;12.15;10.48;;;;;;;;;;2080322;28;20060;-82
2021/09/12 04:56:47;;;;;;;11.20;10.10;;;;;;;;;;2081546;28;20060;-83
2021/09/12 04:58:06;;;;;;;10.70;9.80;;;;;;;;;;2079598;28;20029;-81
2021/09/12 04:59:24;;;;;;;10.80;9.90;;;;;;;;;;2082909;28;20509;-82
2021/09/12 05:00:43;;;;;;;11.52;10.43;;;;;;;;;;2077507;28;20478;-82
2021/09/12 05:02:03;;;;;;;10.13;9.30;;;;;;;;;;2082623;28;20108;-82
2021/09/12 05:03:23;;;;;;;10.60;9.70;;;;;;;;;;2082776;28;20025;-82
2021/09/12 05:04:41;;;;;;;10.48;9.65;;;;;;;;;;2082228;28;20037;-81
2021/09/12 05:06:00;;;;;;;10.77;9.60;;;;;;;;;;2091392;28;20399;-82
2021/09/12 05:07:19;;;;;;;10.77;9.73;;;;;;;;;;2081665;28;20030;-81
2021/09/12 05:08:38;;;;;;;10.60;9.45;;;;;;;;;;2083896;28;20021;-82
2021/09/12 05:09:57;;;;;;;9.90;9.07;;;;;;;;;;2077122;28;20029;-81
2021/09/12 05:11:16;;;;;;;10.20;9.27;;;;;;;;;;2082128;28;20029;-81
2021/09/12 05:12:35;;;;;;;10.45;9.50;;;;;;;;;;2081746;28;20059;-81
2021/09/12 05:13:54;;;;;;;11.40;10.30;;;;;;;;;;2081939;28;20465;-81
2021/09/12 05:15:13;;;;;;;10.23;9.38;;;;;;;;;;2080426;28;20025;-80
2021/09/12 05:16:31;;;;;;;11.82;9.18;;;;;;;;;;2079922;28;20030;-80
2021/09/12 05:17:51;;;;;;;10.85;9.77;;;;;;;;;;2080914;28;20029;-81
2021/09/12 05:19:09;;;;;;;11.35;9.98;;;;;;;;;;2089826;28;20448;-80
2021/09/12 05:20:28;;;;;;;10.45;9.52;;;;;;;;;;2081739;28;20025;-81
2021/09/12 05:21:47;;;;;;;10.60;9.25;;;;;;;;;;2072674;28;20026;-81
2021/09/12 05:23:06;;;;;;;10.02;9.23;;;;;;;;;;2081468;28;20484;-82
2021/09/12 05:24:25;;;;;;;11.25;10.15;;;;;;;;;;2082646;28;20516;-81
2021/09/12 05:25:45;;;;;;;10.88;9.88;;;;;;;;;;2071212;28;20026;-79
2021/09/12 05:27:04;;;;;;;10.18;9.27;;;;;;;;;;2076327;28;20493;-79
2021/09/12 05:28:22;;;;;;;10.07;9.20;;;;;;;;;;2077190;28;20029;-81
2021/09/12 05:29:41;;;;;;;11.35;9.90;;;;;;;;;;2080725;28;20070;-80
2021/09/12 05:31:01;;;;;;;10.75;9.20;;;;;;;;;;2081697;28;20420;-80
2021/09/12 05:32:21;;;;;;;10.57;9.68;;;;;;;;;;2078711;28;20026;-79
2021/09/12 05:33:40;;;;;;;10.68;9.70;;;;;;;;;;2087457;28;20025;-80
2021/09/12 05:34:58;;;;;;;15.70;10.15;;;;;;;;;;2083051;28;20025;-83
2021/09/12 05:36:17;;;;;;;11.20;9.68;;;;;;;;;;2078489;28;20030;-80
2021/09/12 05:37:37;;;;;;;10.02;9.13;;;;;;;;;;2078954;28;20026;-81
2021/09/12 05:38:56;;;;;;;12.88;9.77;;;;;;;;;;2081291;28;20497;-81
2021/09/12 05:40:15;;;;;;;12.88;10.15;;;;;;;;;;2075553;28;20490;-79
2021/09/12 05:41:34;;;;;;;12.20;9.90;;;;;;;;;;2080179;28;20022;-79
2021/09/12 05:42:53;;;;;;;11.02;10.02;;;;;;;;;;2082789;28;21309;-80
2021/09/12 05:44:12;;;;;;;12.07;10.07;;;;;;;;;;2081117;28;20033;-81
2021/09/12 05:45:30;;;;;;;13.75;9.73;;;;;;;;;;2082253;28;20029;-79
2021/09/12 05:46:51;;;;;;;11.10;9.98;;;;;;;;;;2081949;28;20029;-80
2021/09/12 05:48:11;;;;;;;12.80;10.25;;;;;;;;;;2081539;28;20112;-82
2021/09/12 05:49:30;;;;;;;10.27;9.35;;;;;;;;;;2081643;28;20025;-80
2021/09/12 05:50:48;;;;;;;10.88;9.77;;;;;;;;;;2082695;28;20485;-82
2021/09/12 05:52:07;;;;;;;11.98;9.60;;;;;;;;;;2085340;28;20033;-82
2021/09/12 05:53:27;;;;;;;11.90;10.43;;;;;;;;;;2083831;28;20456;-80
2021/09/12 05:54:46;;;;;;;11.13;9.98;;;;;;;;;;2083123;28;20029;-81
2021/09/12 05:56:05;;;;;;;10.98;9.88;;;;;;;;;;2090892;28;20025;-81
2021/09/12 05:57:24;;;;;;;11.75;10.32;;;;;;;;;;2082366;28;20108;-80
2021/09/12 05:58:43;;;;;;;11.43;10.27;;;;;;;;;;2080706;28;20032;-79
2021/09/12 06:00:03;;;;;;;12.43;10.73;;;;;;;;;;2076913;28;20038;-80
2021/09/12 06:01:22;;;;;;;13.20;11.45;;;;;;;;;;2088359;28;20017;-80
2021/09/12 06:02:41;;;;;;;15.43;11.25;;;;;;;;;;2081857;28;20018;-80
2021/09/12 06:04:00;;;;;;;16.17;10.75;;;;;;;;;;2081246;28;20050;-80
2021/09/12 06:05:19;;;;;;;12.20;10.90;;;;;;;;;;2082844;28;20034;-79
2021/09/12 06:06:38;;;;;;;13.63;11.45;;;;;;;;;;2085439;28;20037;-79
2021/09/12 06:07:57;;;;;;;14.93;11.18;;;;;;;;;;2081794;28;20025;-80
2021/09/12 06:09:15;;;;;;;11.75;10.63;;;;;;;;;;2077622;28;20025;-80
2021/09/12 06:10:34;;;;;;;15.98;11.00;;;;;;;;;;2078176;28;20124;-79
2021/09/12 06:11:53;;;;;;;12.95;11.23;;;;;;;;;;2080478;28;20533;-80
2021/09/12 06:13:12;;;;;;;12.30;10.68;;;;;;;;;;2082560;28;20029;-80
2021/09/12 06:14:31;;;;;;;10.93;9.80;;;;;;;;;;2078546;28;20029;-80
2021/09/12 06:15:51;;;;;;;11.70;10.60;;;;;;;;;;2080468;28;20033;-81
2021/09/12 06:17:10;;;;;;;14.43;11.15;;;;;;;;;;2082188;28;20033;-81
2021/09/12 06:18:29;;;;;;;14.18;11.52;;;;;;;;;;2079625;28;20504;-80
2021/09/12 06:19:48;;;;;;;12.60;10.50;;;;;;;;;;2075626;28;20026;-80
2021/09/12 06:21:07;;;;;;;13.75;10.98;;;;;;;;;;2076568;28;20021;-81
2021/09/12 06:22:27;;;;;;;11.05;9.95;;;;;;;;;;2077258;28;20025;-82
2021/09/12 06:23:45;;;;;;;13.15;10.18;;;;;;;;;;2091267;28;20469;-83
2021/09/12 06:25:05;;;;;;;14.95;10.90;;;;;;;;;;2082196;28;20033;-82
2021/09/12 06:26:24;;;;;;;16.35;10.60;;;;;;;;;;2083746;28;20076;-83
2021/09/12 06:27:43;;;;;;;14.13;10.20;;;;;;;;;;2081876;28;20454;-81
2021/09/12 06:29:02;;;;;;;11.85;10.57;;;;;;;;;;2077289;28;20034;-82
2021/09/12 06:30:21;;;;;;;12.23;10.85;;;;;;;;;;2077951;28;20049;-81
2021/09/12 06:31:39;;;;;;;11.00;9.85;;;;;;;;;;2079431;28;20069;-81
2021/09/12 06:32:58;;;;;;;11.48;10.27;;;;;;;;;;2078232;28;20033;-80
2021/09/12 06:34:18;;;;;;;13.73;10.52;;;;;;;;;;2077743;28;20038;-80
2021/09/12 06:35:36;;;;;;;14.38;11.20;;;;;;;;;;2074011;28;20037;-80
2021/09/12 06:36:56;;;;;;;12.70;10.75;;;;;;;;;;2080578;28;20637;-81
2021/09/12 06:38:15;;;;;;;13.38;10.48;;;;;;;;;;2080843;28;20033;-80
2021/09/12 06:39:34;;;;;;;12.38;10.43;;;;;;;;;;2080908;28;20025;-80
2021/09/12 06:40:53;;;;;;;12.13;10.05;;;;;;;;;;2078096;28;20033;-82
2021/09/12 06:42:21;;;;;;;14.88;10.77;;;;;;;;;;2086466;28;20025;-83
2021/09/12 06:43:40;;;;;;;13.77;10.90;;;;;;;;;;2081989;28;20025;-82
2021/09/12 06:44:59;;;;;;;11.57;10.38;;;;;;;;;;2086049;28;21159;-79
2021/09/12 06:46:17;;;;;;;13.40;10.38;;;;;;;;;;2081875;28;20037;-81
2021/09/12 06:47:36;;;;;;;11.10;8.93;;;;;;;;;;2078230;28;20115;-81
2021/09/12 06:48:55;;;;;;;12.38;9.57;;;;;;;;;;2078518;28;20033;-80
2021/09/12 06:50:14;;;;;;;11.63;9.57;;;;;;;;;;2077957;28;20064;-80
2021/09/12 06:51:33;;;;;;;12.38;9.43;;;;;;;;;;2081072;28;20041;-81
2021/09/12 06:52:52;;;;;;;9.73;8.73;;;;;;;;;;2077435;28;20030;-81
2021/09/12 06:54:11;;;;;;;10.60;9.52;;;;;;;;;;2080785;28;20091;-78
2021/09/12 06:55:30;;;;;;;11.75;9.77;;;;;;;;;;2078092;28;20021;-78
2021/09/12 06:56:49;;;;;;;13.07;9.60;;;;;;;;;;2078039;28;20034;-78
2021/09/12 06:58:08;;;;;;;12.98;9.13;;;;;;;;;;2085956;28;20463;-78
2021/09/12 06:59:26;;;;;;;12.77;9.35;;;;;;;;;;2080720;28;20033;-80
2021/09/12 07:00:46;;;;;;;12.68;10.15;;;;;;;;;;2079993;28;20087;-79
2021/09/12 07:02:04;;;;;;;9.88;8.93;;;;;;;;;;2078385;28;20036;-77
2021/09/12 07:03:24;;;;;;;10.98;9.68;;;;;;;;;;2082204;28;20022;-77
2021/09/12 07:04:42;;;;;;;11.73;9.95;;;;;;;;;;2080487;28;20021;-78
2021/09/12 07:06:02;;;;;;;9.73;8.82;;;;;;;;;;2085686;28;20025;-78
2021/09/12 07:07:20;;;;;;;11.07;9.48;;;;;;;;;;2081287;28;20125;-77
2021/09/12 07:08:39;;;;;;;10.40;9.07;;;;;;;;;;2077471;28;20029;-78
2021/09/12 07:09:58;;;;;;;10.65;8.68;;;;;;;;;;2079274;28;20052;-77
2021/09/12 07:11:17;;;;;;;10.27;9.18;;;;;;;;;;2082494;28;20037;-78
2021/09/12 07:12:36;;;;;;;10.43;8.73;;;;;;;;;;2081091;28;20030;-76
2021/09/12 07:13:55;;;;;;;11.82;8.73;;;;;;;;;;2081239;28;20621;-78
2021/09/12 07:15:14;;;;;;;9.23;8.27;;;;;;;;;;2083154;28;20037;-79
2021/09/12 07:16:33;;;;;;;10.07;9.07;;;;;;;;;;2078085;28;20481;-80
2021/09/12 07:17:52;;;;;;;12.52;9.38;;;;;;;;;;2082126;28;20026;-79
2021/09/12 07:19:13;;;;;;;9.55;8.65;;;;;;;;;;2080573;28;20064;-80
2021/09/12 07:20:32;;;;;;;14.20;8.57;;;;;;;;;;2075633;28;20025;-80
2021/09/12 07:21:52;;;;;;;10.48;9.20;;;;;;;;;;2079678;28;20492;-80
2021/09/12 07:23:11;;;;;;;11.20;9.02;;;;;;;;;;2077995;28;20022;-81
2021/09/12 07:24:30;;;;;;;10.98;9.20;;;;;;;;;;2080375;28;20037;-79
2021/09/12 07:25:48;;;;;;;9.52;8.50;;;;;;;;;;2077547;28;20517;-80
2021/09/12 07:27:07;;;;;;;14.07;9.20;;;;;;;;;;2079542;28;20038;-80
2021/09/12 07:28:26;;;;;;;11.60;8.85;;;;;;;;;;2077445;28;20497;-80
2021/09/12 07:29:45;;;;;;;8.85;8.00;;;;;;;;;;2076256;28;20026;-81
2021/09/12 07:31:03;;;;;;;12.75;8.27;;;;;;;;;;2077109;28;20033;-81
2021/09/12 07:32:22;;;;;;;8.52;7.72;;;;;;;;;;2081542;28;20502;-81
2021/09/12 07:33:41;;;;;;;9.15;8.32;;;;;;;;;;2082827;28;20033;-81
2021/09/12 07:34:59;;;;;;;9.23;7.85;;;;;;;;;;2086543;28;20033;-80
2021/09/12 07:36:18;;;;;;;9.25;8.07;;;;;;;;;;2076718;28;20440;-81
2021/09/12 07:37:39;;;;;;;8.95;8.05;;;;;;;;;;2074827;28;20410;-81
2021/09/12 07:38:58;;;;;;;8.02;7.25;;;;;;;;;;2081606;28;20029;-80
2021/09/12 07:40:17;;;;;;;8.55;7.43;;;;;;;;;;2079823;28;20397;-81
2021/09/12 07:41:36;;;;;;;8.30;7.50;;;;;;;;;;2079761;28;20029;-80
2021/09/12 07:42:55;;;;;;;7.53;6.90;;;;;;;;;;2083612;28;20029;-81